createdAt,value
2022-09-03T00:02:53.560Z,14.95
2022-09-03T00:08:06.672Z,15.13
2022-09-03T00:13:10.563Z,15.04
2022-09-03T00:18:23.452Z,15.00
2022-09-03T00:23:28.564Z,14.84
2022-09-03T00:28:46.378Z,14.80
2022-09-03T00:33:51.842Z,14.72
2022-09-03T00:38:53.520Z,14.71
2022-09-03T00:44:21.550Z,14.55
2022-09-03T00:49:42.237Z,14.62
2022-09-03T00:55:32.659Z,14.43
2022-09-03T01:00:34.351Z,14.38
2022-09-03T01:05:45.889Z,14.35
2022-09-03T01:10:50.527Z,14.34
2022-09-03T01:16:31.007Z,14.04
2022-09-03T01:21:58.800Z,14.16
2022-09-03T01:27:26.484Z,14.10
2022-09-03T01:32:56.295Z,14.05
2022-09-03T01:38:31.058Z,13.94
2022-09-03T01:43:44.693Z,13.85
2022-09-03T01:49:11.331Z,13.64
2022-09-03T01:54:34.956Z,13.59
2022-09-03T01:59:59.405Z,13.49
2022-09-03T02:05:08.057Z,13.30
2022-09-03T02:10:14.657Z,13.22
2022-09-03T02:15:20.372Z,13.15
2022-09-03T02:20:26.645Z,12.88
2022-09-03T02:25:38.073Z,12.83
2022-09-03T02:30:42.035Z,12.60
2022-09-03T02:35:44.028Z,12.61
2022-09-03T02:40:45.944Z,12.47
2022-09-03T02:45:51.397Z,12.41
2022-09-03T02:50:53.095Z,12.17
2022-09-03T02:56:01.629Z,12.11
2022-09-03T03:01:04.031Z,11.95
2022-09-03T03:06:07.153Z,11.96
2022-09-03T03:11:08.724Z,12.00
2022-09-03T03:16:10.678Z,11.85
2022-09-03T03:21:15.796Z,12.05
2022-09-03T03:26:19.603Z,12.05
2022-09-03T03:31:27.633Z,11.78
2022-09-03T03:36:32.557Z,11.73
2022-09-03T03:41:35.805Z,11.52
2022-09-03T03:46:39.649Z,11.44
2022-09-03T03:51:41.298Z,11.22
2022-09-03T03:56:42.860Z,11.26
2022-09-03T04:01:44.452Z,11.30
2022-09-03T04:06:46.037Z,11.14
2022-09-03T04:11:47.577Z,11.13
2022-09-03T04:16:49.165Z,10.98
2022-09-03T04:21:50.727Z,10.78
2022-09-03T04:26:54.100Z,10.66
2022-09-03T04:32:16.240Z,10.73
2022-09-03T04:37:20.037Z,10.74
2022-09-03T04:42:22.092Z,10.66
2022-09-03T04:47:23.936Z,10.83
2022-09-03T04:52:25.601Z,10.79
2022-09-03T04:57:27.653Z,10.85
2022-09-03T05:02:29.340Z,10.97
2022-09-03T05:07:38.516Z,11.02
2022-09-03T05:12:42.387Z,10.96
2022-09-03T05:17:43.867Z,10.71
2022-09-03T05:22:45.387Z,10.98
2022-09-03T05:27:47.030Z,10.88
2022-09-03T05:32:49.126Z,11.02
2022-09-03T05:37:53.429Z,11.00
2022-09-03T05:42:59.991Z,10.97
2022-09-03T05:48:02.504Z,11.73
2022-09-03T05:53:04.026Z,12.00
2022-09-03T05:58:05.544Z,12.32
2022-09-03T06:03:07.187Z,12.64
2022-09-03T06:08:08.842Z,13.16
2022-09-03T06:13:14.843Z,13.21
2022-09-03T06:18:16.439Z,13.32
2022-09-03T06:23:18.219Z,13.64
2022-09-03T06:28:23.152Z,13.87
2022-09-03T06:33:26.365Z,14.24
2022-09-03T06:38:32.127Z,14.70
2022-09-03T06:43:36.194Z,14.97
2022-09-03T06:48:38.965Z,15.45
2022-09-03T06:53:43.440Z,16.17
2022-09-03T06:58:47.113Z,17.07
2022-09-03T07:03:57.276Z,17.20
2022-09-03T07:08:59.835Z,17.82
2022-09-03T07:14:02.624Z,18.22
2022-09-03T07:19:06.377Z,18.07
2022-09-03T07:24:13.047Z,18.80
2022-09-03T07:29:16.042Z,18.89
2022-09-03T07:34:26.531Z,19.52
2022-09-03T07:39:28.250Z,19.77
2022-09-03T07:44:31.031Z,20.01
2022-09-03T07:49:34.692Z,20.35
2022-09-03T07:54:36.261Z,21.18
2022-09-03T08:00:06.898Z,20.85
2022-09-03T08:05:28.407Z,21.42
2022-09-03T08:10:32.480Z,21.80
2022-09-03T08:15:34.855Z,22.21
2022-09-03T08:20:38.784Z,22.23
2022-09-03T08:25:41.409Z,22.59
2022-09-03T08:30:43.101Z,21.98
2022-09-03T08:35:54.389Z,23.89
2022-09-03T08:41:30.240Z,23.23
2022-09-03T08:46:51.699Z,23.70
2022-09-03T08:51:56.616Z,24.21
2022-09-03T08:57:01.877Z,24.01
2022-09-03T09:02:20.738Z,24.18
2022-09-03T09:07:32.375Z,24.56
2022-09-03T09:12:58.778Z,24.23
2022-09-03T09:18:14.615Z,24.19
2022-09-03T09:23:40.021Z,24.93
2022-09-03T09:28:43.454Z,24.46
2022-09-03T09:33:52.508Z,25.37
2022-09-03T09:39:08.695Z,25.50
2022-09-03T09:44:19.884Z,25.00
2022-09-03T09:50:00.535Z,24.90
2022-09-03T09:55:08.610Z,25.91
2022-09-03T10:00:38.574Z,25.82
2022-09-03T10:05:40.675Z,25.90
2022-09-03T10:10:49.031Z,25.02
2022-09-03T10:15:58.895Z,25.89
2022-09-03T10:21:31.158Z,25.91
2022-09-03T10:33:35.102Z,26.75
2022-09-03T10:39:07.133Z,25.97
2022-09-03T10:44:40.108Z,25.96
2022-09-03T10:49:52.411Z,26.36
2022-09-03T10:55:38.942Z,27.58
2022-09-03T11:00:53.898Z,26.57
2022-09-03T11:06:11.340Z,26.48
2022-09-03T11:18:08.371Z,26.49
2022-09-03T11:23:15.138Z,26.55
2022-09-03T11:28:45.532Z,27.33
2022-09-03T11:33:54.840Z,27.44
2022-09-03T11:39:01.071Z,27.02
2022-09-03T11:44:40.897Z,27.29
2022-09-03T11:50:04.352Z,27.63
2022-09-03T11:55:07.688Z,27.44
2022-09-03T12:00:14.606Z,26.88
2022-09-03T12:05:27.350Z,26.82
2022-09-03T12:17:38.748Z,27.16
2022-09-03T12:22:40.925Z,26.97
2022-09-03T12:27:45.283Z,26.97
2022-09-03T12:32:48.180Z,26.54
2022-09-03T12:38:09.902Z,26.60
2022-09-03T12:48:39.721Z,26.99
2022-09-03T12:53:42.624Z,27.24
2022-09-03T12:58:53.346Z,27.16
2022-09-03T13:04:04.077Z,27.15
2022-09-03T13:09:11.016Z,27.09
2022-09-03T13:14:19.805Z,27.16
2022-09-03T13:19:45.652Z,27.17
2022-09-03T13:25:02.369Z,26.97
2022-09-03T13:30:40.067Z,27.02
2022-09-03T13:35:50.806Z,27.06
2022-09-03T13:41:02.044Z,27.07
2022-09-03T13:46:22.364Z,26.90
2022-09-03T13:51:43.876Z,26.54
2022-09-03T13:57:10.704Z,27.06
2022-09-03T14:02:44.829Z,26.72
2022-09-03T14:08:07.818Z,26.65
2022-09-03T14:13:37.466Z,27.08
2022-09-03T14:26:12.224Z,26.58
2022-09-03T14:31:44.867Z,26.74
2022-09-03T14:43:25.539Z,26.56
2022-09-03T14:48:55.119Z,26.67
2022-09-03T14:54:23.245Z,26.66
2022-09-03T14:59:38.852Z,26.17
2022-09-03T15:05:15.338Z,25.90
2022-09-03T15:10:42.452Z,25.76
2022-09-03T15:16:15.029Z,26.11
2022-09-03T15:21:33.587Z,26.47
2022-09-03T15:26:47.362Z,26.48
2022-09-03T15:32:05.589Z,26.25
2022-09-03T15:37:32.472Z,26.74
2022-09-03T15:42:37.097Z,25.97
2022-09-03T15:48:14.655Z,26.13
2022-09-03T15:53:36.297Z,26.11
2022-09-03T15:59:03.950Z,26.13
2022-09-03T16:04:25.795Z,26.06
2022-09-03T16:10:26.325Z,26.08
2022-09-03T16:15:41.639Z,25.94
2022-09-03T16:20:48.362Z,25.92
2022-09-03T16:26:03.947Z,25.95
2022-09-03T16:31:43.670Z,25.84
2022-09-03T16:37:36.447Z,25.95
2022-09-03T16:43:39.258Z,25.92
2022-09-03T16:48:57.441Z,25.83
2022-09-03T16:54:12.893Z,25.81
2022-09-03T16:59:56.309Z,25.66
2022-09-03T17:05:03.967Z,25.47
2022-09-03T17:10:36.132Z,25.54
2022-09-03T17:16:09.101Z,25.34
2022-09-03T17:28:07.695Z,25.13
2022-09-03T17:33:42.783Z,24.98
2022-09-03T17:39:22.699Z,24.33
2022-09-03T17:44:54.620Z,23.70
2022-09-03T17:50:16.338Z,23.37
2022-09-03T17:55:42.064Z,23.25
2022-09-03T18:01:46.780Z,23.19
2022-09-03T18:06:59.320Z,22.90
2022-09-03T18:12:25.726Z,22.38
2022-09-03T18:17:33.565Z,22.44
2022-09-03T18:23:08.812Z,22.55
2022-09-03T18:28:35.829Z,22.08
2022-09-03T18:33:58.759Z,21.74
2022-09-03T18:39:33.631Z,21.41
2022-09-03T18:45:22.153Z,21.00
2022-09-03T18:58:01.972Z,22.32
2022-09-03T19:04:01.771Z,22.09
2022-09-03T19:10:08.498Z,22.34
2022-09-03T19:15:56.015Z,21.99
2022-09-03T19:21:34.489Z,21.25
2022-09-03T19:27:23.528Z,20.86
2022-09-03T19:33:17.210Z,20.40
2022-09-03T19:38:59.791Z,19.86
2022-09-03T19:44:45.909Z,19.55
2022-09-03T19:50:31.973Z,19.39
2022-09-03T20:02:46.163Z,18.76
2022-09-03T20:08:10.802Z,18.99
2022-09-03T20:13:17.779Z,19.91
2022-09-03T20:18:27.718Z,20.07
2022-09-03T20:23:33.670Z,20.25
2022-09-03T20:28:54.324Z,20.29
2022-09-03T20:34:37.848Z,20.10
2022-09-03T20:39:48.403Z,20.15
2022-09-03T20:45:53.591Z,19.90
2022-09-03T20:51:10.168Z,19.87
2022-09-03T20:56:29.351Z,19.80
2022-09-03T21:01:45.508Z,19.87
2022-09-03T21:07:40.082Z,19.72
2022-09-03T21:13:04.552Z,19.50
2022-09-03T21:18:15.043Z,19.17
2022-09-03T21:23:22.712Z,18.96
2022-09-03T21:35:35.884Z,17.84
2022-09-03T21:47:37.694Z,17.35
2022-09-03T21:52:51.887Z,17.47
2022-09-03T21:58:27.553Z,17.50
2022-09-03T22:10:56.898Z,16.71
2022-09-03T22:16:13.218Z,16.38
2022-09-03T22:21:40.304Z,15.72
2022-09-03T22:26:52.267Z,15.86
2022-09-03T22:32:05.595Z,16.12
2022-09-03T22:37:22.855Z,16.11
2022-09-03T22:49:49.045Z,16.53
2022-09-03T22:54:50.538Z,16.12
2022-09-03T22:59:59.810Z,15.71
2022-09-03T23:05:17.979Z,15.46
2022-09-03T23:10:29.125Z,15.38
2022-09-03T23:15:32.539Z,15.30
2022-09-03T23:20:38.092Z,15.12
2022-09-03T23:25:45.375Z,15.41
2022-09-03T23:30:47.069Z,15.22
2022-09-03T23:35:58.260Z,15.16
2022-09-03T23:41:06.930Z,14.96
2022-09-03T23:46:24.207Z,14.48
2022-09-03T23:51:44.958Z,14.62
2022-09-03T23:56:55.548Z,14.20
